createdAt,value
2022-08-07T00:07:13.184Z,78.471022002236
2022-08-07T00:16:06.345Z,78.16967968515651
2022-08-07T00:25:51.841Z,78.47473725974139
2022-08-07T00:34:58.007Z,79.47710125917403
2022-08-07T00:44:00.116Z,80.84385448571845
2022-08-07T00:54:12.253Z,84.14841651396488
2022-08-07T01:02:28.980Z,85.09131984450894
2022-08-07T01:10:39.449Z,86.71338598409696
2022-08-07T01:19:54.538Z,86.54735449432147
2022-08-07T01:28:40.952Z,87.84807862867528
2022-08-07T01:37:16.149Z,88.59211884188959
2022-08-07T01:45:23.166Z,88.45315868473153
2022-08-07T01:55:43.666Z,87.88515939296647
2022-08-07T02:05:43.642Z,87.1911222182123
2022-08-07T02:14:57.817Z,87.24198034413925
2022-08-07T02:23:23.846Z,87.11863610584248
2022-08-07T02:31:54.592Z,88.52364788217527
2022-08-07T02:41:25.589Z,88.69684772733113
2022-08-07T02:50:19.514Z,89.67562175574874
2022-08-07T02:58:36.881Z,91.03803193616474
2022-08-07T03:06:48.672Z,90.85147934344413
2022-08-07T03:15:15.220Z,92.03849732813565
2022-08-07T03:23:00.310Z,92.79008380617627
2022-08-07T03:32:17.313Z,92.2160643510972
2022-08-07T03:40:38.421Z,92.56855886037403
2022-08-07T03:49:25.242Z,91.16232730525174
2022-08-07T04:00:09.001Z,92.45788891896662
2022-08-07T04:08:11.010Z,92.92676695724757
2022-08-07T04:19:23.295Z,93.2366993224825
2022-08-07T04:28:50.496Z,93.10126129209546
2022-08-07T04:38:01.389Z,92.90887497957014
2022-08-07T04:47:57.567Z,92.26181907841118
2022-08-07T04:59:16.734Z,92.94249236352263
2022-08-07T05:09:43.340Z,93.00645088079249
2022-08-07T05:20:09.903Z,93.57747330114225
2022-08-07T05:30:06.303Z,92.15411669060232
2022-08-07T05:38:11.157Z,90.78382840752928
2022-08-07T05:48:57.321Z,86.1953037922291
2022-08-07T05:58:59.060Z,83.84031601168563
2022-08-07T06:08:08.968Z,85.11162015261549
2022-08-07T06:17:07.499Z,84.78706032455334
2022-08-07T06:28:27.282Z,82.83997045257111
2022-08-07T06:36:57.206Z,79.75703965202061
2022-08-07T06:47:10.015Z,79.04544719568466
2022-08-07T06:58:13.650Z,78.59908319503668
2022-08-07T07:09:32.676Z,76.45520580631072
2022-08-07T07:16:13.296Z,73.21574818786542
2022-08-07T07:28:29.579Z,73.9312477059455
2022-08-07T07:38:27.859Z,73.9312477059455
2022-08-07T07:48:24.278Z,73.9312477059455
2022-08-07T07:58:13.249Z,73.9312477059455
2022-08-07T08:08:34.219Z,73.9312477059455
2022-08-07T08:18:19.799Z,73.9312477059455
2022-08-07T08:28:23.815Z,73.9312477059455
2022-08-07T08:37:09.826Z,73.9312477059455
2022-08-07T08:46:22.247Z,73.9312477059455
2022-08-07T08:54:56.218Z,73.9312477059455
2022-08-07T09:03:20.626Z,73.9312477059455
2022-08-07T09:11:43.244Z,73.9312477059455
2022-08-07T09:24:28.080Z,73.9312477059455
2022-08-07T09:34:14.856Z,73.9312477059455
2022-08-07T09:44:05.374Z,73.9312477059455
2022-08-07T09:57:04.687Z,73.9312477059455
2022-08-07T10:06:24.246Z,73.9312477059455
2022-08-07T10:16:32.195Z,73.9312477059455
2022-08-07T10:25:42.657Z,73.9312477059455
2022-08-07T10:33:23.565Z,73.9312477059455
2022-08-07T10:43:12.111Z,73.9312477059455
2022-08-07T10:51:39.860Z,73.9312477059455
2022-08-07T11:00:37.147Z,73.9312477059455
2022-08-07T11:10:08.087Z,73.9312477059455
2022-08-07T11:19:49.299Z,73.9312477059455
2022-08-07T11:28:02.286Z,73.9312477059455
2022-08-07T11:36:53.428Z,73.9312477059455
2022-08-07T11:45:55.301Z,73.9312477059455
2022-08-07T11:55:00.121Z,73.9312477059455
2022-08-07T12:06:36.810Z,73.9312477059455
2022-08-07T12:15:35.994Z,73.9312477059455
2022-08-07T12:25:07.611Z,73.9312477059455
2022-08-07T12:34:49.243Z,73.9312477059455
2022-08-07T12:44:26.800Z,73.9312477059455
2022-08-07T12:54:02.576Z,73.9312477059455
2022-08-07T13:02:37.748Z,73.9312477059455
2022-08-07T13:14:12.554Z,73.9312477059455
2022-08-07T13:22:20.079Z,73.9312477059455
2022-08-07T13:32:32.170Z,73.9312477059455
2022-08-07T13:42:45.335Z,73.9312477059455
2022-08-07T13:54:49.144Z,73.9312477059455
2022-08-07T14:04:05.016Z,73.9312477059455
2022-08-07T14:12:54.670Z,73.9312477059455
2022-08-07T14:23:31.764Z,73.9312477059455
2022-08-07T16:13:58.195Z,73.9312477059455
2022-08-07T16:22:36.243Z,46.08627825716985
2022-08-07T16:24:34.039Z,45.49392624739155
2022-08-07T16:36:22.833Z,46.75095052507133
2022-08-07T16:47:51.040Z,46.90488137074998
2022-08-07T16:59:44.122Z,47.807621131260916
2022-08-07T17:10:56.197Z,48.63839726513486
2022-08-07T17:20:29.816Z,50.272983779731355
2022-08-07T17:28:34.529Z,49.27382992255993
2022-08-07T17:40:30.344Z,51.161903810521466
2022-08-07T17:50:06.698Z,51.61428176637746
2022-08-07T17:59:59.432Z,52.22087950086289
2022-08-07T18:09:01.691Z,53.64438596070302
2022-08-07T18:22:38.941Z,53.78429280564145
2022-08-07T18:32:16.080Z,54.99936884938456
2022-08-07T18:42:34.894Z,56.423219057612236
2022-08-07T18:56:07.679Z,58.13043747018946
2022-08-07T19:06:32.411Z,59.57355058600501
2022-08-07T19:16:43.288Z,58.7672073232332
2022-08-07T19:27:01.796Z,59.47055212900522
2022-08-07T19:39:40.742Z,60.48716671100537
2022-08-07T19:50:40.770Z,60.03567827148196
2022-08-07T20:02:18.984Z,61.50353610195061
2022-08-07T20:12:54.685Z,62.810309841258565
2022-08-07T20:21:22.711Z,63.1146159300569
2022-08-07T20:30:47.180Z,69.23749529183848
2022-08-07T20:38:53.246Z,67.09610985295741
2022-08-07T20:48:37.528Z,65.33097373644553
2022-08-07T20:57:59.886Z,66.04415973885976
2022-08-07T21:06:53.334Z,66.76715803430724
2022-08-07T21:16:09.289Z,66.87104567122724
2022-08-07T21:25:14.430Z,67.00362618977758
2022-08-07T21:34:12.292Z,69.36634237843535
2022-08-07T21:43:22.717Z,71.13812517820753
2022-08-07T21:52:57.527Z,69.156241128437
2022-08-07T22:02:32.477Z,70.99045826724054
2022-08-07T22:10:36.010Z,71.17259836997819
2022-08-07T22:20:07.518Z,72.2880146926217
2022-08-07T22:28:54.373Z,72.88119116826036
2022-08-07T22:37:12.371Z,73.96858253451364
2022-08-07T22:47:11.246Z,74.89444279565124
2022-08-07T22:56:28.689Z,75.01688095456123
2022-08-07T23:04:28.990Z,74.97638045141612
2022-08-07T23:16:45.013Z,76.137351666446
2022-08-07T23:26:50.154Z,76.46665390579652
2022-08-07T23:39:04.814Z,77.35467357697271
2022-08-07T23:47:42.099Z,77.82927277763048
2022-08-07T23:57:23.814Z,78.35178486588165
